TimeCST,TemperatureF,Dew PointF,Humidity,Sea Level PressureIn,VisibilityMPH,Wind Direction,Wind SpeedMPH,Gust SpeedMPH,PrecipitationIn,Events,Conditions,WindDirDegrees,DateUTC
12:15 AM,5.4,-1.7,73,30.23,10.0,NW,12.7,-,N/A,,Overcast,320,2013-12-30 06:15:00
12:35 AM,4.1,-3.1,72,30.24,10.0,NW,11.5,-,N/A,,Overcast,320,2013-12-30 06:35:00
12:55 AM,2.8,-4.5,71,30.24,10.0,NW,11.5,-,N/A,,Overcast,320,2013-12-30 06:55:00
1:15 AM,1.8,-5.3,72,30.25,10.0,NW,11.5,-,N/A,,Scattered Clouds,320,2013-12-30 07:15:00
1:35 AM,0.9,-5.8,74,30.25,10.0,NW,10.4,-,N/A,,Clear,320,2013-12-30 07:35:00
1:55 AM,0.3,-6.3,74,30.25,10.0,NNW,9.2,-,N/A,,Clear,330,2013-12-30 07:55:00
2:15 AM,-0.4,-7.2,73,30.25,10.0,NNW,10.4,-,N/A,,Clear,330,2013-12-30 08:15:00
2:35 AM,-0.9,-7.6,73,30.25,10.0,NNW,8.1,-,N/A,,Clear,340,2013-12-30 08:35:00
2:55 AM,-1.7,-7.8,75,30.26,10.0,NNW,6.9,-,N/A,,Clear,330,2013-12-30 08:55:00
3:15 AM,-2.2,-8.1,76,30.26,10.0,NNW,6.9,-,N/A,,Clear,330,2013-12-30 09:15:00
3:35 AM,-2.7,-8.5,76,30.26,10.0,NNW,6.9,-,N/A,,Clear,330,2013-12-30 09:35:00
3:55 AM,-3.5,-8.9,78,30.26,10.0,NNW,4.6,-,N/A,,Clear,330,2013-12-30 09:55:00
4:15 AM,-4.0,-9.4,78,30.26,10.0,NW,3.5,-,N/A,,Clear,320,2013-12-30 10:15:00
4:35 AM,-4.9,-10.3,78,30.27,10.0,NW,5.8,-,N/A,,Clear,320,2013-12-30 10:35:00
4:55 AM,-4.7,-10.3,77,30.26,10.0,NNW,3.5,-,N/A,,Clear,330,2013-12-30 10:55:00
5:15 AM,-5.3,-11.2,76,30.27,10.0,NW,3.5,-,N/A,,Clear,310,2013-12-30 11:15:00
5:35 AM,-5.8,-11.4,77,30.28,10.0,Calm,Calm,-,N/A,,Clear,0,2013-12-30 11:35:00
5:55 AM,-5.8,-11.4,77,30.29,10.0,Calm,Calm,-,N/A,,Clear,0,2013-12-30 11:55:00
6:15 AM,-6.2,-11.9,76,30.30,10.0,West,4.6,-,N/A,,Clear,280,2013-12-30 12:15:00
6:35 AM,-6.0,-11.4,77,30.30,10.0,West,3.5,-,N/A,,Clear,270,2013-12-30 12:35:00
6:55 AM,-5.3,-10.8,77,30.30,10.0,WNW,5.8,-,N/A,,Clear,290,2013-12-30 12:55:00
7:15 AM,-5.4,-11.4,76,30.30,10.0,WNW,3.5,-,N/A,,Clear,290,2013-12-30 13:15:00
7:35 AM,-5.4,-11.7,74,30.31,10.0,WNW,6.9,-,N/A,,Clear,290,2013-12-30 13:35:00
7:55 AM,-4.9,-11.2,74,30.32,10.0,West,4.6,-,N/A,,Clear,280,2013-12-30 13:55:00
8:15 AM,-3.1,-10.3,71,30.32,10.0,WNW,4.6,-,N/A,,Clear,290,2013-12-30 14:15:00
8:35 AM,-2.9,-10.5,70,30.33,10.0,West,4.6,-,N/A,,Clear,270,2013-12-30 14:35:00
8:55 AM,-2.7,-10.7,69,30.33,10.0,WNW,4.6,-,N/A,,Clear,290,2013-12-30 14:55:00
9:15 AM,-0.9,-9.4,67,30.32,10.0,Calm,Calm,-,N/A,,Clear,0,2013-12-30 15:15:00
9:35 AM,0.5,-9.8,62,30.32,10.0,Calm,Calm,-,N/A,,Clear,0,2013-12-30 15:35:00
9:55 AM,1.0,-9.6,61,30.32,10.0,Calm,Calm,-,N/A,,Clear,0,2013-12-30 15:55:00
10:15 AM,2.1,-8.9,60,30.31,10.0,Calm,Calm,-,N/A,,Scattered Clouds,0,2013-12-30 16:15:00
10:35 AM,4.1,-7.2,59,30.31,10.0,Calm,Calm,-,N/A,,Clear,0,2013-12-30 16:35:00
10:55 AM,4.8,-8.5,54,30.29,10.0,Calm,Calm,-,N/A,,Clear,0,2013-12-30 16:55:00
11:15 AM,4.8,-8.0,56,30.28,10.0,Calm,Calm,-,N/A,,Scattered Clouds,0,2013-12-30 17:15:00
11:35 AM,6.1,-6.0,58,30.27,10.0,Calm,Calm,-,N/A,,Scattered Clouds,0,2013-12-30 17:35:00
11:55 AM,6.8,-6.5,55,30.27,10.0,WSW,3.5,-,N/A,,Mostly Cloudy,250,2013-12-30 17:55:00
12:15 PM,6.4,-6.3,56,30.26,10.0,WSW,3.5,-,N/A,,Overcast,250,2013-12-30 18:15:00
12:35 PM,6.6,-6.2,56,30.25,10.0,West,3.5,-,N/A,,Overcast,270,2013-12-30 18:35:00
12:55 PM,8.1,-4.2,58,30.24,10.0,West,3.5,-,N/A,,Overcast,270,2013-12-30 18:55:00
1:15 PM,7.9,-5.3,55,30.24,10.0,WNW,5.8,-,N/A,,Scattered Clouds,290,2013-12-30 19:15:00
1:35 PM,8.8,-4.0,56,30.23,10.0,WNW,4.6,-,N/A,,Clear,300,2013-12-30 19:35:00
1:55 PM,7.7,-4.9,56,30.23,10.0,West,4.6,-,N/A,,Clear,270,2013-12-30 19:55:00
2:15 PM,6.4,-4.4,61,30.24,10.0,West,5.8,-,N/A,,Scattered Clouds,270,2013-12-30 20:15:00
2:35 PM,6.6,-3.6,63,30.23,10.0,WNW,4.6,-,N/A,,Scattered Clouds,300,2013-12-30 20:35:00
2:55 PM,7.7,-3.3,61,30.23,10.0,Calm,Calm,-,N/A,,Overcast,0,2013-12-30 20:55:00
3:15 PM,8.6,-3.3,59,30.22,10.0,Calm,Calm,-,N/A,,Mostly Cloudy,0,2013-12-30 21:15:00
3:35 PM,9.0,-3.5,57,30.21,10.0,Calm,Calm,-,N/A,,Overcast,0,2013-12-30 21:35:00
3:55 PM,7.7,-4.4,58,30.22,10.0,West,3.5,-,N/A,,Overcast,280,2013-12-30 21:55:00
4:15 PM,6.8,-4.7,59,30.22,10.0,Calm,Calm,-,N/A,,Overcast,0,2013-12-30 22:15:00
4:35 PM,6.4,-4.0,62,30.21,10.0,Calm,Calm,-,N/A,,Overcast,0,2013-12-30 22:35:00
4:55 PM,6.3,-3.5,64,30.21,7.0,SW,3.5,-,N/A,Snow,Light Snow,230,2013-12-30 22:55:00
5:15 PM,6.3,-2.0,69,30.22,4.0,WNW,4.6,-,N/A,Snow,Light Snow,290,2013-12-30 23:15:00
5:35 PM,5.9,-1.8,70,30.22,3.0,West,6.9,-,N/A,Snow,Light Snow,280,2013-12-30 23:35:00
5:55 PM,5.4,-1.7,73,30.21,2.5,WNW,6.9,-,N/A,Snow,Light Snow,300,2013-12-30 23:55:00
6:15 PM,5.0,-1.5,75,30.21,1.5,WNW,3.5,-,N/A,Snow,Light Snow,300,2013-12-31 00:15:00
6:35 PM,5.0,-0.8,77,30.21,1.5,Calm,Calm,-,N/A,Snow,Light Snow,0,2013-12-31 00:35:00
6:55 PM,5.0,-0.6,78,30.20,1.5,Calm,Calm,-,N/A,Snow,Light Snow,0,2013-12-31 00:55:00
7:15 PM,5.0,-0.2,79,30.21,1.8,Calm,Calm,-,N/A,Snow,Light Snow,0,2013-12-31 01:15:00
7:35 PM,5.0,0.1,80,30.21,1.5,Calm,Calm,-,N/A,Snow,Light Snow,0,2013-12-31 01:35:00
7:55 PM,5.0,0.3,81,30.20,1.8,Calm,Calm,-,N/A,Snow,Light Snow,0,2013-12-31 01:55:00
8:15 PM,4.8,-0.2,80,30.20,2.0,Calm,Calm,-,N/A,Snow,Light Snow,0,2013-12-31 02:15:00
8:35 PM,3.9,-0.8,81,30.21,3.0,NW,3.5,-,N/A,Snow,Light Snow,320,2013-12-31 02:35:00
8:55 PM,3.9,-0.4,82,30.21,3.0,NW,3.5,-,N/A,Snow,Light Snow,320,2013-12-31 02:55:00
9:15 PM,4.5,0.3,83,30.21,2.5,NW,3.5,-,N/A,Snow,Light Snow,320,2013-12-31 03:15:00
9:35 PM,4.5,0.3,83,30.21,1.8,NW,3.5,-,N/A,Snow,Light Snow,320,2013-12-31 03:35:00
9:55 PM,4.6,0.5,83,30.21,2.5,NW,3.5,-,N/A,Snow,Light Snow,320,2013-12-31 03:55:00
10:15 PM,4.8,0.5,82,30.20,3.0,Calm,Calm,-,N/A,Snow,Light Snow,0,2013-12-31 04:15:00
10:35 PM,4.8,0.5,82,30.19,2.5,Calm,Calm,-,N/A,Snow,Light Snow,0,2013-12-31 04:35:00
10:55 PM,5.0,0.9,83,30.19,2.5,Calm,Calm,-,N/A,Snow,Light Snow,0,2013-12-31 04:55:00
11:15 PM,4.8,0.5,82,30.19,1.8,North,3.5,-,N/A,Snow,Light Snow,350,2013-12-31 05:15:00
11:35 PM,4.3,0.1,83,30.19,4.0,Calm,Calm,-,N/A,Snow,Light Snow,0,2013-12-31 05:35:00
11:55 PM,3.9,-0.4,82,30.19,5.0,Calm,Calm,-,N/A,Snow,Light Snow,0,2013-12-31 05:55:00